Time;durP1;ratioP1;P1;durP2;ratioP2;P2;SDS_P1;SDS_P2;PMS_P1;PMS_P2;Temp;Humidity;BMP_temperature;BMP_pressure;BME280_temperature;BME280_humidity;BME280_pressure;Samples;Min_cycle;Max_cycle;Signal;HPM_P1;HPM_P2
2023/08/27 00:01:05;;;;;;;12.37;11.17;;;17.40;99.90;;;;;;5042494;28;20791;-71
2023/08/27 00:03:30;;;;;;;11.97;10.80;;;17.40;99.90;;;;;;5042553;28;20178;-71
2023/08/27 00:05:56;;;;;;;12.53;11.30;;;17.50;99.90;;;;;;5045265;28;20178;-72
2023/08/27 00:08:22;;;;;;;11.30;10.20;;;17.50;99.90;;;;;;5040470;28;20181;-72
2023/08/27 00:10:47;;;;;;;11.97;10.83;;;17.50;99.90;;;;;;5045615;28;20501;-72
2023/08/27 00:13:13;;;;;;;12.37;11.10;;;17.60;99.90;;;;;;5046219;28;20213;-72
2023/08/27 00:15:46;;;;;;;11.83;10.83;;;17.70;99.90;;;;;;5046951;28;20264;-72
2023/08/27 00:18:12;;;;;;;11.02;10.13;;;17.50;99.90;;;;;;5039769;28;20209;-72
2023/08/27 00:20:41;;;;;;;11.40;10.40;;;17.70;99.90;;;;;;5041638;28;20178;-72
2023/08/27 00:23:08;;;;;;;15.00;12.48;;;17.80;99.90;;;;;;5045995;28;20733;-72
2023/08/27 00:25:34;;;;;;;18.23;13.18;;;17.70;99.90;;;;;;5042372;28;20550;-72
2023/08/27 00:28:00;;;;;;;16.02;13.18;;;17.90;99.90;;;;;;5045471;28;20214;-71
2023/08/27 00:30:26;;;;;;;12.70;11.50;;;17.70;99.90;;;;;;5041846;28;20189;-72
2023/08/27 00:32:51;;;;;;;12.50;11.20;;;17.80;99.90;;;;;;5042447;28;21209;-72
2023/08/27 00:35:17;;;;;;;12.03;10.83;;;17.70;99.90;;;;;;5039429;28;20186;-71
2023/08/27 00:37:42;;;;;;;12.53;11.33;;;17.60;99.90;;;;;;5044208;28;20263;-71
2023/08/27 00:40:08;;;;;;;11.77;10.77;;;17.40;99.90;;;;;;5041010;28;20189;-72
2023/08/27 00:42:34;;;;;;;10.77;9.87;;;17.50;99.90;;;;;;5041802;28;20189;-72
2023/08/27 00:45:00;;;;;;;11.77;10.53;;;17.60;99.90;;;;;;5045347;28;20505;-71
2023/08/27 00:47:27;;;;;;;13.80;10.57;;;17.50;99.90;;;;;;5044146;28;20224;-71
2023/08/27 00:49:52;;;;;;;11.50;10.38;;;17.60;99.90;;;;;;5041157;28;20189;-72
2023/08/27 00:52:20;;;;;;;12.97;11.67;;;17.70;99.90;;;;;;5044765;28;20213;-71
2023/08/27 00:54:46;;;;;;;14.15;12.85;;;17.60;99.90;;;;;;5044848;28;20177;-72
2023/08/27 00:57:12;;;;;;;13.27;12.00;;;17.80;99.90;;;;;;5043487;28;20201;-73
2023/08/27 00:59:38;;;;;;;12.30;11.20;;;17.60;99.90;;;;;;5043038;28;20440;-72
2023/08/27 01:02:04;;;;;;;12.17;11.07;;;17.60;99.90;;;;;;5044477;28;20204;-72
2023/08/27 01:04:30;;;;;;;11.10;10.07;;;17.60;99.90;;;;;;5044992;28;20213;-72
2023/08/27 01:07:04;;;;;;;11.83;10.67;;;17.60;99.90;;;;;;5041760;28;20240;-73
2023/08/27 01:09:39;;;;;;;13.23;12.02;;;17.70;99.90;;;;;;5042706;28;20448;-72
2023/08/27 01:12:28;;;;;;;12.80;11.70;;;17.80;99.90;;;;;;5041673;28;20205;-72
2023/08/27 01:14:54;;;;;;;11.82;10.73;;;17.80;99.90;;;;;;5055653;28;20582;-72
2023/08/27 01:17:22;;;;;;;13.68;11.63;;;17.90;99.90;;;;;;5041259;28;20217;-72
2023/08/27 01:19:49;;;;;;;12.05;10.95;;;17.80;99.90;;;;;;5041019;28;20177;-72
2023/08/27 01:22:16;;;;;;;12.70;11.40;;;17.80;99.90;;;;;;5043371;28;20178;-72
2023/08/27 01:24:41;;;;;;;11.73;10.68;;;17.70;99.90;;;;;;5040994;28;20521;-71
2023/08/27 01:27:27;;;;;;;12.43;11.13;;;17.90;99.90;;;;;;5041475;28;20266;-73
2023/08/27 01:30:20;;;;;;;13.10;11.90;;;17.90;99.90;;;;;;5045285;28;20251;-71
2023/08/27 01:32:58;;;;;;;12.55;11.25;;;18.00;99.90;;;;;;5042937;28;20205;-71
2023/08/27 01:35:24;;;;;;;12.27;11.07;;;18.30;99.90;;;;;;5038851;28;20677;-71
2023/08/27 01:37:50;;;;;;;11.88;10.68;;;17.90;99.90;;;;;;5043144;28;20288;-71
2023/08/27 01:40:17;;;;;;;11.20;10.27;;;18.00;99.90;;;;;;5039077;28;20269;-72
2023/08/27 01:42:43;;;;;;;10.70;9.80;;;18.10;99.90;;;;;;5042451;28;20236;-73
2023/08/27 01:45:10;;;;;;;10.50;9.60;;;18.10;99.90;;;;;;5041432;28;20182;-72
2023/08/27 01:47:36;;;;;;;11.25;10.10;;;18.10;99.90;;;;;;5030843;28;20206;-73
2023/08/27 01:50:03;;;;;;;11.93;10.83;;;18.00;99.90;;;;;;5060803;28;20212;-72
2023/08/27 01:52:28;;;;;;;10.73;9.82;;;17.80;99.90;;;;;;5048178;28;20296;-72
2023/08/27 01:54:54;;;;;;;11.37;10.30;;;17.90;99.90;;;;;;5047961;28;20256;-72
2023/08/27 01:57:20;;;;;;;11.47;10.20;;;17.90;99.90;;;;;;5046438;28;20735;-72
2023/08/27 01:59:45;;;;;;;10.90;9.90;;;17.80;99.90;;;;;;5042650;28;20182;-72
2023/08/27 02:02:11;;;;;;;11.43;10.47;;;17.80;99.90;;;;;;5046138;28;20232;-72
2023/08/27 02:04:37;;;;;;;11.00;10.10;;;17.80;99.90;;;;;;5046215;28;20639;-73
2023/08/27 02:07:03;;;;;;;12.40;10.97;;;18.00;99.90;;;;;;5045800;28;20201;-72
2023/08/27 02:09:28;;;;;;;9.57;8.68;;;17.90;99.90;;;;;;5037838;28;20471;-72
2023/08/27 02:11:54;;;;;;;8.20;7.43;;;17.90;99.90;;;;;;5043804;28;20201;-72
2023/08/27 02:14:20;;;;;;;8.67;7.77;;;18.10;99.90;;;;;;5047621;28;20186;-72
2023/08/27 02:16:45;;;;;;;8.87;7.97;;;18.00;99.90;;;;;;5046658;28;20651;-72
2023/08/27 02:19:11;;;;;;;7.20;6.50;;;17.90;99.90;;;;;;5045000;28;20692;-72
2023/08/27 02:21:36;;;;;;;8.60;7.80;;;17.80;99.90;;;;;;5041854;28;20189;-72
2023/08/27 02:24:02;;;;;;;9.30;7.27;;;17.80;99.90;;;;;;5047124;28;20236;-72
2023/08/27 02:26:28;;;;;;;8.27;7.43;;;17.80;99.90;;;;;;5045340;28;20220;-71
2023/08/27 02:28:54;;;;;;;8.87;8.10;;;17.40;99.90;;;;;;5047316;28;20189;-72
2023/08/27 02:31:19;;;;;;;9.60;8.70;;;17.90;99.90;;;;;;5041500;28;20556;-72
2023/08/27 02:33:45;;;;;;;10.50;9.37;;;18.20;99.90;;;;;;5046085;28;20686;-72
2023/08/27 02:36:11;;;;;;;10.13;9.13;;;17.90;99.90;;;;;;5043721;28;20276;-72
2023/08/27 02:38:36;;;;;;;10.20;9.30;;;17.90;99.90;;;;;;5043403;28;20213;-72
2023/08/27 02:41:02;;;;;;;9.80;8.87;;;18.10;99.90;;;;;;5047509;28;20235;-73
2023/08/27 02:43:28;;;;;;;8.90;8.20;;;18.10;99.90;;;;;;5040844;28;20192;-72
2023/08/27 02:45:53;;;;;;;9.63;8.73;;;18.20;99.90;;;;;;5039721;28;20653;-72
2023/08/27 02:48:19;;;;;;;11.70;9.20;;;18.20;99.90;;;;;;5044458;28;20196;-72
2023/08/27 02:50:44;;;;;;;9.67;8.67;;;18.30;99.90;;;;;;5045072;28;20220;-73
2023/08/27 02:53:10;;;;;;;10.30;9.40;;;18.30;99.90;;;;;;5044083;28;20213;-72
2023/08/27 02:55:36;;;;;;;9.93;8.93;;;18.30;99.90;;;;;;5045316;28;20235;-73
2023/08/27 02:58:02;;;;;;;8.30;7.57;;;18.30;99.90;;;;;;5042288;28;20292;-72
2023/08/27 03:00:28;;;;;;;7.43;6.60;;;18.20;99.90;;;;;;5044026;28;20568;-71
2023/08/27 03:02:54;;;;;;;8.65;7.85;;;18.20;99.90;;;;;;5047164;28;20216;-72
2023/08/27 03:05:19;;;;;;;7.47;6.73;;;18.20;99.90;;;;;;5045655;28;20702;-71
2023/08/27 03:07:45;;;;;;;8.50;7.63;;;18.10;99.90;;;;;;5044476;28;20201;-72
2023/08/27 03:10:11;;;;;;;7.57;6.40;;;18.20;99.90;;;;;;5043455;28;20181;-72
2023/08/27 03:12:37;;;;;;;8.68;7.75;;;18.00;99.90;;;;;;5048390;28;20460;-72
2023/08/27 03:15:03;;;;;;;7.40;6.70;;;18.00;99.90;;;;;;5047764;28;20516;-72
2023/08/27 03:17:29;;;;;;;7.63;6.87;;;18.10;99.90;;;;;;5044124;28;20198;-73
2023/08/27 03:19:54;;;;;;;8.70;8.00;;;18.10;99.90;;;;;;5039047;28;20768;-73
2023/08/27 03:22:20;;;;;;;8.40;7.63;;;18.10;99.90;;;;;;5044126;28;20548;-72
2023/08/27 03:24:46;;;;;;;8.90;8.10;;;18.20;99.90;;;;;;5042252;28;20185;-72
2023/08/27 03:27:12;;;;;;;9.33;8.30;;;18.20;99.90;;;;;;5041287;28;20940;-72
2023/08/27 03:29:38;;;;;;;9.32;8.63;;;18.20;99.90;;;;;;5044142;28;20440;-73
2023/08/27 03:32:04;;;;;;;10.17;9.13;;;18.20;99.90;;;;;;5045619;28;20212;-72
2023/08/27 03:34:30;;;;;;;10.73;9.73;;;18.10;99.90;;;;;;5045822;28;20447;-72
2023/08/27 03:36:55;;;;;;;9.50;8.70;;;18.20;99.90;;;;;;5045686;28;20573;-72
2023/08/27 03:39:21;;;;;;;11.30;10.20;;;17.90;99.90;;;;;;5049385;28;20792;-72
2023/08/27 03:41:46;;;;;;;11.97;10.87;;;18.10;99.90;;;;;;5042997;28;20193;-72
2023/08/27 03:44:12;;;;;;;11.77;10.73;;;17.90;99.90;;;;;;5044192;28;20212;-72
2023/08/27 03:46:40;;;;;;;11.77;10.67;;;17.90;99.90;;;;;;5042205;28;20313;-72
2023/08/27 03:49:05;;;;;;;11.82;10.68;;;18.00;99.90;;;;;;5046643;28;20693;-72
2023/08/27 03:51:31;;;;;;;11.53;10.43;;;18.00;99.90;;;;;;5044442;28;20475;-72
2023/08/27 03:53:58;;;;;;;12.20;10.90;;;17.70;99.90;;;;;;5040719;28;20205;-72
2023/08/27 03:56:24;;;;;;;12.57;11.27;;;18.00;99.90;;;;;;5041952;28;20217;-72
2023/08/27 03:58:50;;;;;;;11.87;10.77;;;18.00;99.90;;;;;;5046922;28;20178;-72
2023/08/27 04:01:16;;;;;;;11.95;11.00;;;17.70;99.90;;;;;;5044542;28;20192;-72
2023/08/27 04:03:43;;;;;;;12.32;11.13;;;17.70;99.90;;;;;;5046284;28;20229;-71
2023/08/27 04:06:10;;;;;;;13.27;12.07;;;17.70;99.90;;;;;;5044204;28;20213;-71
2023/08/27 04:08:36;;;;;;;10.93;9.93;;;17.90;99.90;;;;;;5045355;28;20519;-72
2023/08/27 04:11:02;;;;;;;10.48;9.57;;;17.90;99.90;;;;;;5043503;28;20196;-72
2023/08/27 04:13:27;;;;;;;10.83;9.93;;;17.80;99.90;;;;;;5048723;28;20613;-71
2023/08/27 04:16:00;;;;;;;10.70;9.70;;;17.70;99.90;;;;;;5044068;28;20662;-72
2023/08/27 04:18:27;;;;;;;10.95;9.85;;;17.50;99.90;;;;;;5043369;28;20189;-71
2023/08/27 04:20:52;;;;;;;10.13;9.23;;;17.60;99.90;;;;;;5037904;28;20267;-71
2023/08/27 04:23:18;;;;;;;11.50;10.33;;;17.50;99.90;;;;;;5046189;28;20674;-72
2023/08/27 04:25:44;;;;;;;9.90;9.03;;;17.50;99.90;;;;;;5043807;28;20448;-72
2023/08/27 04:28:10;;;;;;;10.98;9.38;;;17.70;99.90;;;;;;5045532;28;20197;-71
2023/08/27 04:30:35;;;;;;;10.80;9.67;;;17.50;99.90;;;;;;5039718;28;20177;-72
2023/08/27 04:33:01;;;;;;;10.07;9.17;;;17.60;99.90;;;;;;5045121;28;20200;-72
2023/08/27 04:35:27;;;;;;;11.20;9.80;;;17.60;99.90;;;;;;5043654;28;20247;-72
2023/08/27 04:37:53;;;;;;;10.00;9.10;;;17.70;99.90;;;;;;5040860;28;20474;-72
2023/08/27 04:40:18;;;;;;;10.33;9.43;;;17.80;99.90;;;;;;5042047;28;20192;-72
2023/08/27 04:42:44;;;;;;;9.67;8.87;;;18.10;99.90;;;;;;5045422;28;20761;-72
2023/08/27 04:45:10;;;;;;;10.50;9.60;;;17.90;99.90;;;;;;5045469;28;20181;-72
2023/08/27 04:47:36;;;;;;;7.88;7.28;;;17.90;99.90;;;;;;5045456;28;20484;-72
2023/08/27 04:50:01;;;;;;;7.77;7.17;;;17.70;99.90;;;;;;5042946;28;20243;-71
2023/08/27 04:52:27;;;;;;;8.17;7.53;;;17.70;99.90;;;;;;5043936;28;20217;-71
2023/08/27 04:54:52;;;;;;;10.13;8.00;;;17.70;99.90;;;;;;5044204;28;20260;-71
2023/08/27 04:57:18;;;;;;;9.10;8.40;;;17.80;99.90;;;;;;5041905;28;20276;-71
2023/08/27 04:59:44;;;;;;;8.00;7.30;;;17.70;99.90;;;;;;5046623;28;20220;-71
2023/08/27 05:02:09;;;;;;;8.00;7.20;;;17.80;99.90;;;;;;5042882;28;20203;-71
2023/08/27 05:04:35;;;;;;;7.97;6.97;;;17.70;99.90;;;;;;5038710;28;20718;-73
2023/08/27 05:07:00;;;;;;;8.93;8.10;;;17.70;99.90;;;;;;5044398;28;20243;-72
2023/08/27 05:09:26;;;;;;;9.60;8.70;;;17.70;99.90;;;;;;5044210;28;20544;-72
2023/08/27 05:11:52;;;;;;;7.53;6.93;;;17.80;99.90;;;;;;5033120;28;20205;-71
2023/08/27 05:14:18;;;;;;;6.73;6.00;;;17.70;99.90;;;;;;5042878;28;20451;-71
2023/08/27 05:16:44;;;;;;;6.30;5.80;;;17.80;99.90;;;;;;5037138;28;20218;-71
2023/08/27 05:19:10;;;;;;;7.30;6.60;;;17.80;99.90;;;;;;5039059;28;20655;-71
2023/08/27 05:21:36;;;;;;;7.57;6.97;;;17.60;99.90;;;;;;5041709;28;20968;-73
2023/08/27 05:24:02;;;;;;;7.30;6.70;;;17.60;99.90;;;;;;5044595;28;20189;-72
2023/08/27 05:26:27;;;;;;;7.50;6.80;;;17.40;99.90;;;;;;5042766;28;20213;-72
2023/08/27 05:28:53;;;;;;;7.07;6.47;;;17.60;99.90;;;;;;5044838;28;20228;-72
2023/08/27 05:31:19;;;;;;;6.63;6.03;;;17.80;99.90;;;;;;5046726;28;20629;-72
2023/08/27 05:33:45;;;;;;;5.57;5.07;;;17.70;99.90;;;;;;5048038;28;20212;-72
2023/08/27 05:36:10;;;;;;;5.70;5.20;;;18.20;99.90;;;;;;5046963;28;20205;-73
2023/08/27 05:38:36;;;;;;;5.60;5.10;;;17.80;99.90;;;;;;5044813;28;20182;-72
2023/08/27 05:41:02;;;;;;;6.03;5.37;;;17.60;99.90;;;;;;5045789;28;20680;-69
2023/08/27 05:43:27;;;;;;;5.57;5.10;;;18.00;99.90;;;;;;5044835;28;20194;-67
2023/08/27 05:45:53;;;;;;;5.50;5.00;;;17.90;99.90;;;;;;5048258;28;20985;-67
2023/08/27 05:48:18;;;;;;;5.27;4.77;;;18.00;99.90;;;;;;5043932;28;20324;-67
2023/08/27 05:50:44;;;;;;;4.73;4.43;;;18.00;99.90;;;;;;5048720;28;20188;-67
2023/08/27 05:53:11;;;;;;;4.67;4.30;;;18.10;99.90;;;;;;5048865;28;20288;-68
2023/08/27 05:55:36;;;;;;;5.22;4.82;;;18.00;99.90;;;;;;5047261;28;20184;-66
2023/08/27 05:58:03;;;;;;;4.77;4.40;;;18.10;99.90;;;;;;5047480;28;20197;-67
2023/08/27 06:00:29;;;;;;;5.28;4.88;;;18.10;99.90;;;;;;5044502;28;20868;-66
2023/08/27 06:02:55;;;;;;;5.37;4.90;;;18.20;99.90;;;;;;5048842;28;20204;-66
2023/08/27 06:05:20;;;;;;;5.60;5.10;;;18.20;99.90;;;;;;5045207;28;21025;-67
2023/08/27 06:07:46;;;;;;;5.13;4.73;;;18.20;99.90;;;;;;5046524;28;20239;-67
2023/08/27 06:10:12;;;;;;;5.07;4.67;;;18.30;99.90;;;;;;5045400;28;20186;-69
2023/08/27 06:12:37;;;;;;;4.90;4.50;;;18.40;99.90;;;;;;5040506;28;20210;-67
2023/08/27 06:15:04;;;;;;;4.17;3.90;;;18.40;99.90;;;;;;5044079;28;20732;-65
2023/08/27 06:17:30;;;;;;;4.80;4.38;;;18.40;99.90;;;;;;5044570;28;20332;-65
2023/08/27 06:19:55;;;;;;;4.30;4.00;;;18.50;99.90;;;;;;5046999;28;20269;-65
2023/08/27 06:22:21;;;;;;;8.03;5.00;;;18.50;99.90;;;;;;5047133;28;20444;-65
2023/08/27 06:24:47;;;;;;;4.80;4.43;;;18.40;99.90;;;;;;5045967;28;20193;-66
2023/08/27 06:27:16;;;;;;;5.53;4.33;;;18.50;99.90;;;;;;5045077;28;20201;-65
2023/08/27 06:29:44;;;;;;;6.30;4.07;;;18.60;99.90;;;;;;5047041;28;20623;-65
2023/08/27 06:32:10;;;;;;;4.10;3.80;;;18.60;99.90;;;;;;5046722;28;20708;-65
2023/08/27 06:34:36;;;;;;;3.57;3.27;;;18.70;99.90;;;;;;5037157;28;20186;-65
2023/08/27 06:37:02;;;;;;;4.00;3.50;;;18.80;99.90;;;;;;5045100;28;20271;-65
2023/08/27 06:39:27;;;;;;;2.90;2.70;;;18.80;99.90;;;;;;5045808;28;20189;-65
2023/08/27 06:41:53;;;;;;;2.73;2.50;;;18.90;99.90;;;;;;5044747;28;20217;-65
2023/08/27 06:44:19;;;;;;;3.10;2.80;;;19.00;99.90;;;;;;5041482;28;20255;-65
2023/08/27 06:46:45;;;;;;;3.00;2.30;;;19.00;99.90;;;;;;5042229;28;20209;-65
2023/08/27 06:49:11;;;;;;;2.70;2.43;;;19.10;99.90;;;;;;5044726;28;20181;-65
2023/08/27 06:51:36;;;;;;;2.23;2.00;;;19.10;99.90;;;;;;5046498;28;20579;-65
2023/08/27 06:54:03;;;;;;;2.30;2.20;;;19.20;99.90;;;;;;5045782;28;20176;-65
2023/08/27 06:56:29;;;;;;;3.28;2.97;;;19.10;99.90;;;;;;5044348;28;20231;-65
2023/08/27 06:58:54;;;;;;;2.67;2.47;;;19.00;99.90;;;;;;5044755;28;20178;-66
2023/08/27 07:01:20;;;;;;;3.67;2.87;;;19.00;99.90;;;;;;5040282;28;20574;-65
2023/08/27 07:03:46;;;;;;;2.83;2.53;;;19.10;99.90;;;;;;5042746;28;20646;-65
2023/08/27 07:06:11;;;;;;;2.73;2.53;;;19.00;99.90;;;;;;5046178;28;20634;-65
2023/08/27 07:08:37;;;;;;;3.00;2.70;;;19.10;99.90;;;;;;5043254;28;20281;-65
2023/08/27 07:11:05;;;;;;;2.47;2.30;;;19.20;99.90;;;;;;5043591;28;20207;-65
2023/08/27 07:13:31;;;;;;;2.38;2.25;;;19.10;99.90;;;;;;5043178;28;20225;-65
2023/08/27 07:15:59;;;;;;;2.80;2.40;;;19.20;99.90;;;;;;5047705;28;20191;-65
2023/08/27 07:18:25;;;;;;;2.83;2.58;;;19.20;99.90;;;;;;5044614;28;20186;-66
2023/08/27 07:20:51;;;;;;;2.70;2.50;;;19.40;99.90;;;;;;5044460;28;20555;-65
2023/08/27 07:23:16;;;;;;;2.43;2.30;;;19.30;99.90;;;;;;5041097;28;20220;-65
2023/08/27 07:25:42;;;;;;;3.20;2.67;;;19.50;99.90;;;;;;5042879;28;20439;-65
2023/08/27 07:28:08;;;;;;;3.17;2.17;;;19.40;99.90;;;;;;5043412;28;20713;-65
2023/08/27 07:30:35;;;;;;;2.83;2.63;;;19.40;99.90;;;;;;5046743;28;20189;-65
2023/08/27 07:33:01;;;;;;;2.53;2.33;;;19.50;99.90;;;;;;5042976;28;20213;-65
2023/08/27 07:35:27;;;;;;;4.17;2.70;;;19.70;99.90;;;;;;5043602;28;20181;-65
2023/08/27 07:37:53;;;;;;;3.15;2.67;;;19.90;99.90;;;;;;5043050;28;20291;-66
2023/08/27 07:40:18;;;;;;;2.63;2.43;;;20.00;99.90;;;;;;5044491;28;20760;-64
2023/08/27 07:42:44;;;;;;;2.50;2.30;;;19.80;99.90;;;;;;5044305;28;20178;-64
2023/08/27 07:45:10;;;;;;;2.00;1.90;;;20.00;99.90;;;;;;5044932;28;20185;-64
2023/08/27 07:47:36;;;;;;;2.57;2.20;;;20.00;99.90;;;;;;5043997;28;20247;-64
2023/08/27 07:50:01;;;;;;;2.00;1.90;;;19.80;99.90;;;;;;5040843;28;20801;-66
2023/08/27 07:52:27;;;;;;;3.23;2.00;;;20.10;99.90;;;;;;5044914;28;20213;-65
2023/08/27 07:54:53;;;;;;;3.00;2.37;;;20.10;99.90;;;;;;5043355;28;20207;-64
2023/08/27 07:57:18;;;;;;;2.87;2.10;;;19.90;99.90;;;;;;5043276;28;20793;-67
2023/08/27 07:59:44;;;;;;;2.67;2.27;;;20.10;99.90;;;;;;5043836;28;20181;-65
2023/08/27 08:02:09;;;;;;;2.37;2.17;;;19.80;99.90;;;;;;5043671;28;20212;-65
2023/08/27 08:04:35;;;;;;;3.33;2.57;;;19.80;99.90;;;;;;5042177;28;20186;-67
2023/08/27 08:07:00;;;;;;;1.97;1.87;;;19.80;99.90;;;;;;5041268;28;20213;-67
2023/08/27 08:09:26;;;;;;;2.80;2.00;;;19.70;99.90;;;;;;5044267;28;20193;-69
2023/08/27 08:11:52;;;;;;;2.73;2.03;;;19.70;99.90;;;;;;5041787;28;20254;-67
2023/08/27 08:14:17;;;;;;;2.10;1.93;;;19.60;99.90;;;;;;5040187;28;20193;-68
2023/08/27 08:16:43;;;;;;;1.97;1.87;;;19.70;99.90;;;;;;5040576;28;20232;-68
2023/08/27 08:19:09;;;;;;;1.90;1.80;;;19.80;99.90;;;;;;5041927;28;20235;-68
2023/08/27 08:21:36;;;;;;;2.20;2.00;;;19.80;99.90;;;;;;5042048;28;20443;-68
2023/08/27 08:24:01;;;;;;;2.13;2.03;;;19.70;99.90;;;;;;5033764;28;20188;-69
2023/08/27 08:26:27;;;;;;;2.20;2.00;;;19.70;99.90;;;;;;5043510;28;20773;-67
2023/08/27 08:28:53;;;;;;;1.90;1.70;;;19.80;99.90;;;;;;5042599;28;20277;-66
2023/08/27 08:31:19;;;;;;;2.03;1.60;;;19.80;99.90;;;;;;5044832;28;20514;-66
2023/08/27 08:33:45;;;;;;;1.77;1.67;;;20.00;99.90;;;;;;5039054;28;20224;-66
2023/08/27 08:36:12;;;;;;;2.47;1.40;;;20.10;99.90;;;;;;5037632;28;20190;-68
2023/08/27 08:38:37;;;;;;;1.60;1.50;;;20.10;99.90;;;;;;5040774;28;20266;-67
2023/08/27 08:41:04;;;;;;;1.70;1.60;;;20.10;99.90;;;;;;5042050;28;20264;-66
2023/08/27 08:43:40;;;;;;;1.92;1.67;;;20.10;99.90;;;;;;5042520;28;20196;-67
2023/08/27 08:46:06;;;;;;;1.65;1.30;;;20.10;99.90;;;;;;5044835;28;20209;-67
2023/08/27 08:48:41;;;;;;;1.95;1.73;;;20.10;99.90;;;;;;5041925;28;20192;-67
2023/08/27 08:51:09;;;;;;;1.63;1.52;;;20.20;99.90;;;;;;5043771;28;20184;-65
2023/08/27 08:53:49;;;;;;;2.70;1.70;;;20.30;99.90;;;;;;5042066;28;20255;-68
2023/08/27 08:56:23;;;;;;;2.20;1.50;;;20.40;99.90;;;;;;5043144;28;20238;-66
2023/08/27 08:58:54;;;;;;;1.45;1.35;;;20.30;99.90;;;;;;5048684;28;20178;-66
2023/08/27 09:01:21;;;;;;;1.40;1.30;;;20.50;99.90;;;;;;5048410;28;20606;-66
2023/08/27 09:03:48;;;;;;;1.40;1.25;;;20.50;99.90;;;;;;5045208;28;20721;-67
2023/08/27 09:06:20;;;;;;;1.60;1.50;;;20.60;99.90;;;;;;5064505;28;20186;-67
2023/08/27 09:08:47;;;;;;;1.83;1.67;;;20.70;99.90;;;;;;5049491;28;20187;-66
2023/08/27 09:11:16;;;;;;;2.17;1.85;;;20.70;99.90;;;;;;5047598;28;20181;-67
2023/08/27 09:13:42;;;;;;;1.88;1.77;;;20.70;99.90;;;;;;5046081;28;20217;-66
2023/08/27 09:16:09;;;;;;;2.15;1.63;;;20.80;99.90;;;;;;5049237;28;20185;-66
2023/08/27 09:18:35;;;;;;;2.03;1.83;;;20.80;99.90;;;;;;5047978;28;20222;-66
2023/08/27 09:21:01;;;;;;;1.80;1.70;;;20.90;99.90;;;;;;5047005;28;20611;-66
2023/08/27 09:23:29;;;;;;;2.70;1.77;;;20.60;99.90;;;;;;5049411;28;20181;-66
2023/08/27 09:25:59;;;;;;;1.65;1.35;;;20.70;99.90;;;;;;5047282;28;20971;-67
2023/08/27 09:28:24;;;;;;;1.90;1.63;;;20.60;99.90;;;;;;5047303;28;20217;-68
2023/08/27 09:30:51;;;;;;;3.47;1.50;;;20.60;99.90;;;;;;5049421;28;20184;-68
2023/08/27 09:33:17;;;;;;;2.00;1.50;;;20.70;99.90;;;;;;5047115;28;20741;-68
2023/08/27 09:35:42;;;;;;;3.23;1.70;;;20.70;99.90;;;;;;5044236;28;20269;-67
2023/08/27 09:38:13;;;;;;;1.50;1.40;;;21.10;99.90;;;;;;5047087;28;20471;-67
2023/08/27 09:40:39;;;;;;;1.88;1.55;;;21.50;99.90;;;;;;5049831;28;20205;-67
2023/08/27 09:43:09;;;;;;;2.13;1.93;;;21.80;99.90;;;;;;5046762;28;20213;-67
2023/08/27 09:45:35;;;;;;;1.80;1.70;;;21.70;99.90;;;;;;5044949;28;20453;-67
2023/08/27 09:48:02;;;;;;;2.47;1.55;;;21.90;99.90;;;;;;5045966;28;20214;-68
2023/08/27 09:50:29;;;;;;;2.40;1.70;;;22.10;99.90;;;;;;5046710;28;20193;-67
2023/08/27 09:53:05;;;;;;;2.13;1.63;;;22.50;99.90;;;;;;5045778;28;20695;-67
2023/08/27 09:55:33;;;;;;;2.45;1.80;;;22.60;99.90;;;;;;5046080;28;20475;-65
2023/08/27 09:57:59;;;;;;;1.80;1.70;;;22.40;99.90;;;;;;5042584;28;20205;-65
2023/08/27 10:00:27;;;;;;;2.40;1.63;;;22.40;99.90;;;;;;5045384;28;20436;-66
2023/08/27 10:02:53;;;;;;;2.07;1.67;;;22.40;99.90;;;;;;5046915;28;20605;-67
2023/08/27 10:05:27;;;;;;;3.63;1.60;;;22.30;99.90;;;;;;5062852;28;20972;-67
2023/08/27 10:07:58;;;;;;;2.60;1.80;;;22.40;99.90;;;;;;5041961;28;20539;-67
2023/08/27 10:10:24;;;;;;;2.37;1.67;;;22.50;99.90;;;;;;5041438;28;20443;-67
2023/08/27 10:12:50;;;;;;;1.43;1.33;;;22.50;99.90;;;;;;5045720;28;20478;-67
2023/08/27 10:15:18;;;;;;;1.77;1.67;;;22.50;99.90;;;;;;5048562;28;20439;-67
2023/08/27 10:17:43;;;;;;;1.67;1.53;;;22.50;99.90;;;;;;5045698;28;20197;-69
2023/08/27 10:20:11;;;;;;;2.13;1.93;;;22.70;99.90;;;;;;5045303;28;20440;-67
2023/08/27 10:22:37;;;;;;;3.50;1.50;;;22.80;99.90;;;;;;5043850;28;20189;-65
2023/08/27 10:25:06;;;;;;;2.33;1.73;;;22.90;99.90;;;;;;5045643;28;20448;-66
2023/08/27 10:27:32;;;;;;;2.67;1.77;;;23.10;99.90;;;;;;5043922;28;20576;-65
2023/08/27 10:29:59;;;;;;;1.80;1.60;;;23.10;99.90;;;;;;5042600;28;20463;-66
2023/08/27 10:32:25;;;;;;;2.50;1.93;;;23.20;99.90;;;;;;5047423;28;20467;-66
2023/08/27 10:34:50;;;;;;;1.77;1.63;;;23.50;99.90;;;;;;5044818;28;20981;-66
2023/08/27 10:37:19;;;;;;;2.13;1.60;;;23.80;99.90;;;;;;5048205;28;20205;-65
2023/08/27 10:39:47;;;;;;;2.60;1.60;;;24.10;99.90;;;;;;5047968;28;20193;-67
2023/08/27 10:42:42;;;;;;;1.87;1.70;;;24.10;99.90;;;;;;5047180;28;20448;-68
2023/08/27 10:45:21;;;;;;;2.10;1.67;;;24.20;99.90;;;;;;5041223;28;20937;-68
2023/08/27 10:48:21;;;;;;;3.37;1.90;;;23.90;99.60;;;;;;5049206;28;20467;-68
2023/08/27 10:50:54;;;;;;;3.60;2.07;;;23.80;99.60;;;;;;5046398;28;20443;-69
2023/08/27 10:53:20;;;;;;;1.60;1.50;;;23.90;99.60;;;;;;5047392;28;20471;-66
2023/08/27 10:55:51;;;;;;;1.70;1.60;;;23.70;99.30;;;;;;5046607;28;20447;-67
2023/08/27 10:58:22;;;;;;;2.40;1.60;;;23.70;99.30;;;;;;5048171;28;20539;-67
2023/08/27 11:01:06;;;;;;;1.60;1.40;;;23.60;99.30;;;;;;5044676;28;20487;-66
2023/08/27 11:03:57;;;;;;;1.77;1.60;;;23.40;99.50;;;;;;5046324;28;20535;-67
2023/08/27 11:06:43;;;;;;;3.03;2.00;;;23.50;99.20;;;;;;5037923;28;20976;-67
2023/08/27 11:09:23;;;;;;;2.20;1.70;;;24.10;99.10;;;;;;5045883;28;20448;-68
2023/08/27 11:11:59;;;;;;;2.40;1.70;;;23.70;99.10;;;;;;5042958;28;20446;-67
2023/08/27 11:14:25;;;;;;;1.90;1.67;;;23.60;98.90;;;;;;5045672;28;21048;-66
2023/08/27 11:17:05;;;;;;;1.77;1.63;;;24.00;99.00;;;;;;5045081;28;20497;-67
2023/08/27 11:19:31;;;;;;;1.93;1.73;;;23.90;98.80;;;;;;5044134;28;21198;-65
2023/08/27 11:22:07;;;;;;;1.50;1.40;;;23.90;98.90;;;;;;5044973;28;20472;-67
2023/08/27 11:24:32;;;;;;;2.33;1.80;;;24.10;99.00;;;;;;5045144;28;20447;-67
2023/08/27 11:27:02;;;;;;;1.63;1.53;;;23.90;97.40;;;;;;5045858;28;20821;-67
2023/08/27 11:29:28;;;;;;;1.70;1.60;;;24.10;97.80;;;;;;5046221;28;20667;-67
2023/08/27 11:31:56;;;;;;;2.10;1.73;;;24.20;97.80;;;;;;5045312;28;20478;-66
2023/08/27 11:34:22;;;;;;;2.17;2.00;;;24.00;98.00;;;;;;5045657;28;20936;-67
2023/08/27 11:36:49;;;;;;;2.07;1.97;;;23.90;97.90;;;;;;5045850;28;20553;-67
2023/08/27 11:39:15;;;;;;;4.37;1.87;;;24.10;97.30;;;;;;5046326;28;20436;-67
2023/08/27 11:41:44;;;;;;;2.70;1.90;;;24.00;97.40;;;;;;5044463;28;20955;-67
2023/08/27 11:44:10;;;;;;;1.90;1.80;;;23.60;97.70;;;;;;5044749;28;20439;-68
2023/08/27 11:46:37;;;;;;;5.70;2.27;;;23.70;97.30;;;;;;5042553;28;20953;-67
2023/08/27 11:49:05;;;;;;;1.97;1.80;;;23.50;97.70;;;;;;5045038;28;20436;-67
2023/08/27 11:51:31;;;;;;;3.20;2.20;;;23.70;97.40;;;;;;5046396;28;20448;-68
2023/08/27 11:53:58;;;;;;;2.73;2.53;;;23.70;96.80;;;;;;5043589;28;20444;-67
2023/08/27 11:56:24;;;;;;;1.70;1.60;;;23.50;97.50;;;;;;5042742;28;20457;-67
2023/08/27 11:58:51;;;;;;;2.10;1.90;;;23.40;97.40;;;;;;5045065;28;20478;-67
2023/08/27 12:01:18;;;;;;;2.00;1.90;;;23.50;96.20;;;;;;5041833;28;20727;-67
2023/08/27 12:03:43;;;;;;;3.40;2.20;;;23.50;96.40;;;;;;5043096;28;20494;-67
2023/08/27 12:06:20;;;;;;;1.70;1.60;;;23.50;96.70;;;;;;5044139;28;20530;-68
2023/08/27 12:08:50;;;;;;;2.90;1.60;;;23.50;95.90;;;;;;5043050;28;20444;-68
2023/08/27 12:11:17;;;;;;;2.80;1.67;;;23.50;96.10;;;;;;5042802;28;20481;-67
2023/08/27 12:13:53;;;;;;;1.73;1.60;;;23.60;96.30;;;;;;5044937;28;20496;-66
2023/08/27 12:16:33;;;;;;;2.63;2.20;;;23.30;95.00;;;;;;5044306;28;20860;-66
2023/08/27 12:19:03;;;;;;;2.20;2.00;;;23.40;96.20;;;;;;5046351;28;20466;-66
2023/08/27 12:21:45;;;;;;;2.20;2.00;;;23.40;95.60;;;;;;5045332;28;20440;-66
2023/08/27 12:24:41;;;;;;;1.83;1.73;;;23.40;96.30;;;;;;5041636;28;20459;-66
2023/08/27 12:27:08;;;;;;;2.33;2.10;;;23.30;96.30;;;;;;5042895;28;20519;-66
2023/08/27 12:29:39;;;;;;;2.00;1.70;;;23.40;96.10;;;;;;5047805;28;20449;-66
2023/08/27 12:32:08;;;;;;;2.30;2.10;;;23.50;95.50;;;;;;5045485;28;20494;-66
2023/08/27 12:35:05;;;;;;;2.37;1.80;;;23.40;96.30;;;;;;5045011;28;21017;-67
2023/08/27 12:37:31;;;;;;;4.00;1.77;;;23.40;95.90;;;;;;5039206;28;20475;-67
2023/08/27 12:39:57;;;;;;;2.40;1.93;;;23.50;95.90;;;;;;5044064;28;20444;-67
2023/08/27 12:42:25;;;;;;;2.00;1.80;;;23.40;95.70;;;;;;5044390;28;20209;-67
2023/08/27 12:44:50;;;;;;;3.13;1.80;;;23.60;95.50;;;;;;5043995;28;20192;-67